Home > Products > Valid Products > TAF

000
FTUS44 KOHX 031120
TAFCSV
TAF
KCSV 031120Z 0312/0412 29006KT P6SM SCT050=



000
FTUS44 KOHX 031120
TAFBNA
TAF
KBNA 031120Z 0312/0412 27007KT P6SM SCT050=



000
FTUS44 KOHX 031120
TAFCSV
TAF
KCSV 031120Z 0312/0412 29006KT P6SM SCT050=



000
FTUS44 KOHX 031120
TAFCKV
TAF
KCKV 031120Z 0312/0412 27008KT P6SM SCT050=



000
FTUS44 KOHX 031120
TAFCKV
TAF
KCKV 031120Z 0312/0412 27008KT P6SM SCT050=



000
FTUS44 KOHX 031120
TAFBNA
TAF
KBNA 031120Z 0312/0412 27007KT P6SM SCT050=



000
FTUS44 KOHX 030859 AAB
TAFCKV
TAF AMD
KCKV 030859Z 0309/0406 VRB03KT 6SM BR SCT250
      TEMPO 0309/0312 1SM BR
     FM031300 27008KT P6SM SCT050=



000
FTUS44 KOHX 030700 AAA
TAFCKV
TAF AMD
KCKV 030700Z 0307/0406 VRB03KT P6SM SCT250
      TEMPO 0307/0311 4SM BR
     FM031600 27008KT P6SM SCT050=



000
FTUS44 KOHX 030700 AAA
TAFCKV
TAF AMD
KCKV 030700Z 0307/0406 VRB03KT P6SM SCT250
      TEMPO 0307/0311 4SM BR
     FM031600 27008KT P6SM SCT050=



000
FTUS44 KOHX 030535
TAFBNA
TAF
KBNA 030535Z 0306/0406 VRB03KT P6SM FEW250
     FM031600 29007KT P6SM SCT050=



000
FTUS44 KOHX 030535
TAFCKV
TAF
KCKV 030535Z 0306/0406 VRB03KT P6SM SCT250
     FM031600 27008KT P6SM SCT050=



000
FTUS44 KOHX 030535
TAFCSV
TAF
KCSV 030535Z 0306/0406 00000KT P6SM SKC
      TEMPO 0308/0312 4SM BR
     FM031600 29006KT P6SM SCT050=



000
FTUS44 KOHX 022320
TAFCKV
TAF
KCKV 022320Z 0300/0324 VRB03KT P6SM SKC
     FM031600 27008KT P6SM SCT050=



000
FTUS44 KOHX 022320
TAFBNA
TAF
KBNA 022320Z 0300/0324 VRB03KT P6SM FEW200
     FM031600 28007KT P6SM SCT050=



000
FTUS44 KOHX 022320
TAFBNA
TAF
KBNA 022320Z 0300/0324 VRB03KT P6SM FEW200
     FM031600 28007KT P6SM SCT050=



000
FTUS44 KOHX 022320
TAFCSV
TAF
KCSV 022320Z 0300/0324 00000KT P6SM SKC
      TEMPO 0308/0312 4SM BR
     FM031600 28006KT P6SM SCT050=



000
FTUS44 KOHX 022320
TAFCSV
TAF
KCSV 022320Z 0300/0324 00000KT P6SM SKC
      TEMPO 0308/0312 4SM BR
     FM031600 28006KT P6SM SCT050=



000
FTUS44 KOHX 022320
TAFCKV
TAF
KCKV 022320Z 0300/0324 VRB03KT P6SM SKC
     FM031600 27008KT P6SM SCT050=



000
FTUS44 KOHX 021720
TAFCKV
TAF
KCKV 021720Z 0218/0318 VRB05KT P6SM SCT050
     FM030100 18002KT P6SM SCT150
     FM030800 18002KT 3SM BR SCT200
     FM031400 26007KT P6SM SCT045=



000
FTUS44 KOHX 021720
TAFCKV
TAF
KCKV 021720Z 0218/0318 VRB05KT P6SM SCT050
     FM030100 18002KT P6SM SCT150
     FM030800 18002KT 3SM BR SCT200
     FM031400 26007KT P6SM SCT045=



000
FTUS44 KOHX 021720
TAFBNA
TAF
KBNA 021720Z 0218/0318 05006KT P6SM SCT050
     FM030100 25003KT P6SM FEW200
     FM031500 26006KT P6SM SCT040=



000
FTUS44 KOHX 021720
TAFBNA
TAF
KBNA 021720Z 0218/0318 05006KT P6SM SCT050
     FM030100 25003KT P6SM FEW200
     FM031500 26006KT P6SM SCT040=



000
FTUS44 KOHX 021720
TAFCSV
TAF
KCSV 021720Z 0218/0318 VRB05KT P6SM SCT045
     FM030100 00000KT P6SM FEW200
     FM030600 00000KT 3SM BR SCT150
     FM031400 27006KT P6SM SCT035=



000
FTUS44 KOHX 021720
TAFCSV
TAF
KCSV 021720Z 0218/0318 VRB05KT P6SM SCT045
     FM030100 00000KT P6SM FEW200
     FM030600 00000KT 3SM BR SCT150
     FM031400 27006KT P6SM SCT035=



000
FTUS44 KOHX 021542 AAA
TAFCSV
TAF AMD
KCSV 021542Z 0216/0312 VRB05KT P6SM SCT045
     FM030100 00000KT P6SM FEW200
     FM030800 00000KT 4SM BR SCT150=



000
FTUS44 KOHX 021502 AAA
TAFCKV
TAF AMD
KCKV 021502Z 0215/0312 VRB05KT P6SM SCT050
     FM030100 18002KT P6SM SCT150
     FM030800 18002KT 3SM BR SCT200=



000
FTUS44 KOHX 021501 AAA
TAFBNA
TAF AMD
KBNA 021501Z 0215/0312 05006KT P6SM SCT050
     FM030100 25003KT P6SM FEW200=



000
FTUS44 KOHX 021501 AAA
TAFBNA
TAF AMD
KBNA 021501Z 0215/0312 05006KT P6SM SCT050
     FM030100 25003KT P6SM FEW200=



000
FTUS44 KOHX 021120
TAFCKV
TAF
KCKV 021120Z 0212/0312 VRB03KT P6SM FEW200
      TEMPO 0212/0213 00000KT 1SM BR
     FM030700 17004KT P6SM FEW200=



000
FTUS44 KOHX 021120
TAFBNA
TAF
KBNA 021120Z 0212/0312 VRB03KT P6SM FEW200
     FM030800 16004KT P6SM FEW200=



000
FTUS44 KOHX 021120
TAFCSV
TAF
KCSV 021120Z 0212/0312 VRB03KT P6SM FEW200
     FM031000 15004KT P6SM FEW200=



000
FTUS44 KOHX 021120
TAFCSV
TAF
KCSV 021120Z 0212/0312 VRB03KT P6SM FEW200
     FM031000 15004KT P6SM FEW200=



000
FTUS44 KOHX 021120
TAFBNA
TAF
KBNA 021120Z 0212/0312 VRB03KT P6SM FEW200
     FM030800 16004KT P6SM FEW200=



000
FTUS44 KOHX 021120
TAFCKV
TAF
KCKV 021120Z 0212/0312 VRB03KT P6SM FEW200
      TEMPO 0212/0213 00000KT 1SM BR
     FM030700 17004KT P6SM FEW200=



000
FTUS44 KOHX 020815 AAA
TAFCKV
TAF AMD
KCKV 020815Z 0208/0306 VRB04KT P6SM FEW250
      TEMPO 0208/0211 00000KT 1/2SM FG=



000
FTUS44 KOHX 020537
TAFCKV
TAF
KCKV 020537Z 0206/0306 VRB04KT P6SM FEW250=



000
FTUS44 KOHX 020537
TAFCSV
TAF
KCSV 020537Z 0206/0306 03004KT P6SM FEW250=



000
FTUS44 KOHX 020537
TAFBNA
TAF
KBNA 020537Z 0206/0306 03005KT P6SM FEW250=



000
FTUS44 KOHX 020537
TAFBNA
TAF
KBNA 020537Z 0206/0306 03005KT P6SM FEW250=



000
FTUS44 KOHX 020537
TAFCSV
TAF
KCSV 020537Z 0206/0306 03004KT P6SM FEW250=



000
FTUS44 KOHX 020537
TAFCKV
TAF
KCKV 020537Z 0206/0306 VRB04KT P6SM FEW250=



000
FTUS44 KOHX 012328
TAFCKV
TAF
KCKV 012328Z 0200/0224 VRB04KT P6SM FEW250=



000
FTUS44 KOHX 012328
TAFCSV
TAF
KCSV 012328Z 0200/0224 05004KT P6SM FEW250=



000
FTUS44 KOHX 012328
TAFBNA
TAF
KBNA 012328Z 0200/0224 03005KT P6SM FEW250=



000
FTUS44 KOHX 011728
TAFBNA
TAF
KBNA 011728Z 0118/0218 36011KT P6SM SCT050 SCT100
     FM020100 04003KT P6SM SKC
     FM021500 07005KT P6SM SCT035=



000
FTUS44 KOHX 011728
TAFCSV
TAF
KCSV 011728Z 0118/0218 34010KT P6SM FEW045
     FM020100 00000KT P6SM SKC
     FM021500 05004KT P6SM SCT030=



000
FTUS44 KOHX 011728
TAFCKV
TAF
KCKV 011728Z 0118/0218 36009KT P6SM SCT050 SCT100
     FM020100 VRB03KT P6SM SKC
     FM021500 15005KT P6SM SCT035=



000
FTUS44 KOHX 011728
TAFCKV
TAF
KCKV 011728Z 0118/0218 36009KT P6SM SCT050 SCT100
     FM020100 VRB03KT P6SM SKC
     FM021500 15005KT P6SM SCT035=



000
FTUS44 KOHX 011728
TAFCSV
TAF
KCSV 011728Z 0118/0218 34010KT P6SM FEW045
     FM020100 00000KT P6SM SKC
     FM021500 05004KT P6SM SCT030=



000
FTUS44 KOHX 011728
TAFBNA
TAF
KBNA 011728Z 0118/0218 36011KT P6SM SCT050 SCT100
     FM020100 04003KT P6SM SKC
     FM021500 07005KT P6SM SCT035=



000
FTUS44 KOHX 011130 AAA
TAFBNA
TAF AMD
KBNA 011130Z 0112/0212 35005KT P6SM FEW150
     FM011600 36009G16KT P6SM FEW100
     FM020100 VRB03KT P6SM SKC=



000
FTUS44 KOHX 011120
TAFBNA
TAF
KBNA 011120Z 0112/0212 35012KT P6SM FEW060
     FM020100 VRB03KT P6SM SKC=



000
FTUS44 KOHX 011120
TAFBNA
TAF
KBNA 011120Z 0112/0212 35012KT P6SM FEW060
     FM020100 VRB03KT P6SM SKC=



000
FTUS44 KOHX 011120
TAFCSV
TAF
KCSV 011120Z 0112/0212 34010KT P6SM FEW045
     FM020100 VRB03KT P6SM SKC=



000
FTUS44 KOHX 011120
TAFCKV
TAF
KCKV 011120Z 0112/0212 35011KT P6SM FEW060
     FM020100 VRB03KT P6SM SKC=



000
FTUS44 KOHX 011120
TAFCSV
TAF
KCSV 011120Z 0112/0212 34010KT P6SM FEW045
     FM020100 VRB03KT P6SM SKC=



000
FTUS44 KOHX 011120
TAFCKV
TAF
KCKV 011120Z 0112/0212 35011KT P6SM FEW060
     FM020100 VRB03KT P6SM SKC=



000
FTUS44 KOHX 010522
TAFCSV
TAF
KCSV 010522Z 0106/0206 35003KT P6SM SKC
     FM011700 36010KT P6SM FEW060
     FM020100 04002KT P6SM SKC=



000
FTUS44 KOHX 010522
TAFBNA
TAF
KBNA 010522Z 0106/0206 35004KT P6SM SKC
     FM011700 01011KT P6SM SCT060
     FM020100 03004KT P6SM SKC=



000
FTUS44 KOHX 010522
TAFCKV
TAF
KCKV 010522Z 0106/0206 36003KT P6SM SKC
     FM011700 01008KT P6SM FEW060=



000
FTUS44 KOHX 010522
TAFBNA
TAF
KBNA 010522Z 0106/0206 35004KT P6SM SKC
     FM011700 01011KT P6SM SCT060
     FM020100 03004KT P6SM SKC=



000
FTUS44 KOHX 010522
TAFCKV
TAF
KCKV 010522Z 0106/0206 36003KT P6SM SKC
     FM011700 01008KT P6SM FEW060=



000
FTUS44 KOHX 010522
TAFCSV
TAF
KCSV 010522Z 0106/0206 35003KT P6SM SKC
     FM011700 36010KT P6SM FEW060
     FM020100 04002KT P6SM SKC=



000
FTUS44 KOHX 312328
TAFBNA
TAF
KBNA 312328Z 0100/0124 01005KT P6SM SKC
     FM011700 01011KT P6SM SCT060=



000
FTUS44 KOHX 312328
TAFCSV
TAF
KCSV 312328Z 0100/0124 01003KT P6SM SKC
     FM011700 36010KT P6SM FEW060=



000
FTUS44 KOHX 312328
TAFCKV
TAF
KCKV 312328Z 0100/0124 36004KT P6SM SKC
     FM011700 01008KT P6SM FEW060=



000
FTUS44 KOHX 312328
TAFCKV
TAF
KCKV 312328Z 0100/0124 36004KT P6SM SKC
     FM011700 01008KT P6SM FEW060=



000
FTUS44 KOHX 312328
TAFBNA
TAF
KBNA 312328Z 0100/0124 01005KT P6SM SKC
     FM011700 01011KT P6SM SCT060=



000
FTUS44 KOHX 312328
TAFCSV
TAF
KCSV 312328Z 0100/0124 01003KT P6SM SKC
     FM011700 36010KT P6SM FEW060=



000
FTUS44 KOHX 311720
TAFBNA
TAF
KBNA 311720Z 3118/0118 07008KT P6SM FEW050 SCT200
     FM010600 01003KT P6SM SKC=



000
FTUS44 KOHX 311720
TAFCSV
TAF
KCSV 311720Z 3118/0118 04007KT P6SM SKC
     FM010200 36003KT P6SM SKC=



000
FTUS44 KOHX 311720
TAFCKV
TAF
KCKV 311720Z 3118/0118 VRB03KT P6SM SKC=



    US Dept of Commerce
    National Oceanic and Atmospheric Administration
    National Weather Service
    1325 East West Highway
    Silver Spring, MD 20910
    Page Author: NWS Internet Services Team
Disclaimer
Information Quality
Credits
Glossary
Privacy Policy
Freedom of Information Act (FOIA)
About Us
Career Opportunities